Terminal Aerodrome Forecast
Issued by NWS

Home | Current Version | Previous Version | Text Only | Print | Product List | Glossary Off
Versions: 1 2 3 4 5 6 7 8 9 10 11 12 13 14 15 16 17 18

000
FTUS43 KICT 201120
TAFSLN
TAF
KSLN 201120Z 2012/2112 10003KT 1/4SM FG OVC002
     FM201630 14004KT 2SM BR OVC004
     FM201830 18007KT P6SM OVC008
     FM210000 19007KT P6SM BKN025=

USA.gov is the U.S. government's official web portal to all federal, state and local government web resources and services.